Orbital elements of FENGYUN 1C DEB
| Launched | 9 May 1999 |
| Flight ended | – |
| Launch site | Taiyuan Space Center, PRC |
| Owner | People's Republic of China |
| NORAD ID | 31357 |
| Date fetched |
Epoch osculation |
Inc. [°] |
Ecc. | RA asc node [hr] |
Arg Peri. [°] |
Mean anom [°] |
Mean motion [rev/day] |
Abs. mag |
| Date fetched |
Epoch osculation |
Inc. [°] |
Ecc. | RA asc node [hr] |
Arg Peri. [°] |
Mean anom [°] |
Mean motion [rev/day] |
Abs. mag |
| 2026 May 05 17:57 | 2026 May 05 01:25:34 | 98.5913 | 0.00489 | 10.4501 | 238.1884 | 149.3234 | 14.18545 | – |
| 2026 May 04 17:57 | 2026 Apr 30 13:40:57 | 98.5918 | 0.00488 | 10.1601 | 251.4116 | 149.3234 | 14.18545 | – |
| 2026 May 03 17:57 | 2026 Apr 30 13:40:57 | 98.5918 | 0.00488 | 10.1601 | 251.4116 | 149.3234 | 14.18545 | – |
| 2026 May 02 17:57 | 2026 Apr 30 13:40:57 | 98.5918 | 0.00488 | 10.1601 | 251.4116 | 149.3234 | 14.18545 | – |
| 2026 May 01 17:56 | 2026 Apr 30 13:40:57 | 98.5918 | 0.00488 | 10.1601 | 251.4116 | 149.3234 | 14.18545 | – |
| 2026 Apr 30 17:56 | 2026 Apr 30 13:40:57 | 98.5918 | 0.00488 | 10.1601 | 251.4116 | 149.3234 | 14.18545 | – |
| 2026 Apr 29 17:57 | 2026 Apr 24 01:20:46 | 98.5928 | 0.00487 | 9.7393 | 270.6476 | 149.3234 | 14.18545 | – |
| 2026 Apr 28 17:56 | 2026 Apr 24 01:20:46 | 98.5928 | 0.00487 | 9.7393 | 270.6476 | 149.3234 | 14.18545 | – |
| 2026 Apr 27 17:58 | 2026 Apr 24 01:20:46 | 98.5928 | 0.00487 | 9.7393 | 270.6476 | 149.3234 | 14.18545 | – |
| 2026 Apr 26 17:58 | 2026 Apr 24 01:20:46 | 98.5928 | 0.00487 | 9.7393 | 270.6476 | 149.3234 | 14.18545 | – |
| 2026 Apr 25 17:58 | 2026 Apr 24 01:20:46 | 98.5928 | 0.00487 | 9.7393 | 270.6476 | 149.3234 | 14.18545 | – |
| 2026 Apr 24 17:59 | 2026 Apr 24 01:20:46 | 98.5928 | 0.00487 | 9.7393 | 270.6476 | 149.3234 | 14.18545 | – |
| 2026 Apr 23 17:57 | 2026 Apr 19 08:06:20 | 98.5939 | 0.00487 | 9.4344 | 284.5709 | 149.3234 | 14.18545 | – |
| 2026 Apr 22 17:57 | 2026 Apr 19 08:06:20 | 98.5939 | 0.00487 | 9.4344 | 284.5709 | 149.3234 | 14.18545 | – |
| 2026 Apr 21 17:57 | 2026 Apr 19 08:06:20 | 98.5939 | 0.00487 | 9.4344 | 284.5709 | 149.3234 | 14.18545 | – |
| 2026 Apr 20 17:57 | 2026 Apr 19 08:06:20 | 98.5939 | 0.00487 | 9.4344 | 284.5709 | 149.3234 | 14.18545 | – |
| 2026 Apr 19 17:58 | 2026 Apr 19 08:06:20 | 98.5939 | 0.00487 | 9.4344 | 284.5709 | 149.3234 | 14.18545 | – |
| 2026 Apr 18 17:56 | 2026 Apr 13 01:15:59 | 98.5949 | 0.00489 | 9.0283 | 303.1115 | 149.3234 | 14.18545 | – |
| 2026 Apr 16 17:57 | 2026 Apr 13 01:15:59 | 98.5949 | 0.00489 | 9.0283 | 303.1115 | 149.3234 | 14.18545 | – |
| 2026 Apr 14 17:57 | 2026 Apr 13 01:15:59 | 98.5949 | 0.00489 | 9.0283 | 303.1115 | 149.3234 | 14.18545 | – |
| 2026 Apr 13 17:57 | 2026 Apr 13 01:15:59 | 98.5949 | 0.00489 | 9.0283 | 303.1115 | 149.3234 | 14.18545 | – |
| 2026 Apr 12 17:57 | 2026 Apr 08 13:30:38 | 98.5955 | 0.00491 | 8.7382 | 316.2825 | 149.3234 | 14.18545 | – |
| 2026 Apr 11 17:57 | 2026 Apr 08 13:30:38 | 98.5955 | 0.00491 | 8.7382 | 316.2825 | 149.3234 | 14.18545 | – |
| 2026 Apr 10 17:58 | 2026 Apr 08 13:30:38 | 98.5955 | 0.00491 | 8.7382 | 316.2825 | 149.3234 | 14.18545 | – |
| 2026 Apr 09 18:01 | 2026 Apr 08 13:30:38 | 98.5955 | 0.00491 | 8.7382 | 316.2825 | 149.3234 | 14.18545 | – |
| 2026 Apr 08 17:57 | 2026 Apr 08 13:30:38 | 98.5955 | 0.00491 | 8.7382 | 316.2825 | 149.3234 | 14.18545 | – |